sensor_id;sensor_type;location;lat;lon;timestamp;pressure;altitude;pressure_sealevel;temperature
79756;BMP280;69239;50.678;12.280;2023-05-10T00:00:07;96977.28;;;11.76
79756;BMP280;69239;50.678;12.280;2023-05-10T00:02:32;96973.06;;;11.75
79756;BMP280;69239;50.678;12.280;2023-05-10T00:04:58;96967.72;;;11.71
79756;BMP280;69239;50.678;12.280;2023-05-10T00:07:23;96968.03;;;11.70
79756;BMP280;69239;50.678;12.280;2023-05-10T00:09:48;96966.50;;;11.69
79756;BMP280;69239;50.678;12.280;2023-05-10T00:12:14;96966.03;;;11.67
79756;BMP280;69239;50.678;12.280;2023-05-10T00:14:39;96964.06;;;11.64
79756;BMP280;69239;50.678;12.280;2023-05-10T00:17:05;96964.41;;;11.62
79756;BMP280;69239;50.678;12.280;2023-05-10T00:19:30;96957.81;;;11.56
79756;BMP280;69239;50.678;12.280;2023-05-10T00:21:55;96958.75;;;11.51
79756;BMP280;69239;50.678;12.280;2023-05-10T00:24:21;96962.72;;;11.45
79756;BMP280;69239;50.678;12.280;2023-05-10T00:26:46;96962.59;;;11.42
79756;BMP280;69239;50.678;12.280;2023-05-10T00:29:11;96961.81;;;11.41
79756;BMP280;69239;50.678;12.280;2023-05-10T00:31:37;96958.31;;;11.37
79756;BMP280;69239;50.678;12.280;2023-05-10T00:34:02;96957.88;;;11.35
79756;BMP280;69239;50.678;12.280;2023-05-10T00:36:27;96944.91;;;11.30
79756;BMP280;69239;50.678;12.280;2023-05-10T00:38:53;96963.50;;;11.34
79756;BMP280;69239;50.678;12.280;2023-05-10T00:41:18;96965.34;;;11.33
79756;BMP280;69239;50.678;12.280;2023-05-10T00:43:44;96959.28;;;11.33
79756;BMP280;69239;50.678;12.280;2023-05-10T00:46:09;96941.59;;;11.21
79756;BMP280;69239;50.678;12.280;2023-05-10T00:48:34;96938.75;;;11.26
79756;BMP280;69239;50.678;12.280;2023-05-10T00:51:01;96951.59;;;11.27
79756;BMP280;69239;50.678;12.280;2023-05-10T00:53:26;96950.69;;;11.23
79756;BMP280;69239;50.678;12.280;2023-05-10T00:55:52;96953.66;;;11.22
79756;BMP280;69239;50.678;12.280;2023-05-10T00:58:18;96958.16;;;11.21
79756;BMP280;69239;50.678;12.280;2023-05-10T01:00:46;96954.75;;;11.21
79756;BMP280;69239;50.678;12.280;2023-05-10T01:03:11;96946.75;;;11.17
79756;BMP280;69239;50.678;12.280;2023-05-10T01:05:37;96935.97;;;11.10
79756;BMP280;69239;50.678;12.280;2023-05-10T01:08:03;96953.97;;;11.08
79756;BMP280;69239;50.678;12.280;2023-05-10T01:10:28;96948.44;;;11.01
79756;BMP280;69239;50.678;12.280;2023-05-10T01:12:54;96940.16;;;10.90
79756;BMP280;69239;50.678;12.280;2023-05-10T01:15:20;96943.03;;;10.85
79756;BMP280;69239;50.678;12.280;2023-05-10T01:17:46;96945.66;;;10.85
79756;BMP280;69239;50.678;12.280;2023-05-10T01:20:13;96931.78;;;10.76
79756;BMP280;69239;50.678;12.280;2023-05-10T01:23:14;96931.78;;;10.76
79756;BMP280;69239;50.678;12.280;2023-05-10T01:31:08;96942.31;;;10.76
79756;BMP280;69239;50.678;12.280;2023-05-10T01:36:15;96933.09;;;10.70
79756;BMP280;69239;50.678;12.280;2023-05-10T01:44:18;96942.06;;;10.69
79756;BMP280;69239;50.678;12.280;2023-05-10T01:46:49;96933.47;;;10.60
79756;BMP280;69239;50.678;12.280;2023-05-10T01:49:24;96925.47;;;10.48
79756;BMP280;69239;50.678;12.280;2023-05-10T01:51:54;96921.97;;;10.44
79756;BMP280;69239;50.678;12.280;2023-05-10T01:54:24;96927.56;;;10.42
79756;BMP280;69239;50.678;12.280;2023-05-10T01:56:55;96929.72;;;10.40
79756;BMP280;69239;50.678;12.280;2023-05-10T01:59:28;96916.00;;;10.35
79756;BMP280;69239;50.678;12.280;2023-05-10T02:01:57;96919.50;;;10.39
79756;BMP280;69239;50.678;12.280;2023-05-10T02:04:24;96922.59;;;10.41
79756;BMP280;69239;50.678;12.280;2023-05-10T02:06:51;96921.53;;;10.42
79756;BMP280;69239;50.678;12.280;2023-05-10T02:09:18;96912.84;;;10.41
79756;BMP280;69239;50.678;12.280;2023-05-10T02:11:47;96915.94;;;10.43
79756;BMP280;69239;50.678;12.280;2023-05-10T02:14:14;96920.44;;;10.43
79756;BMP280;69239;50.678;12.280;2023-05-10T02:16:41;96918.91;;;10.42
79756;BMP280;69239;50.678;12.280;2023-05-10T02:19:07;96910.84;;;10.38
79756;BMP280;69239;50.678;12.280;2023-05-10T02:21:34;96916.88;;;10.39
79756;BMP280;69239;50.678;12.280;2023-05-10T02:24:02;96921.53;;;10.42
79756;BMP280;69239;50.678;12.280;2023-05-10T02:26:29;96920.88;;;10.45
79756;BMP280;69239;50.678;12.280;2023-05-10T02:28:56;96915.09;;;10.51
79756;BMP280;69239;50.678;12.280;2023-05-10T02:31:22;96918.97;;;10.54
79756;BMP280;69239;50.678;12.280;2023-05-10T02:33:48;96923.09;;;10.55
79756;BMP280;69239;50.678;12.280;2023-05-10T02:36:14;96926.66;;;10.59
79756;BMP280;69239;50.678;12.280;2023-05-10T02:38:40;96924.47;;;10.61
79756;BMP280;69239;50.678;12.280;2023-05-10T02:41:08;96917.22;;;10.58
79756;BMP280;69239;50.678;12.280;2023-05-10T02:43:35;96926.00;;;10.62
79756;BMP280;69239;50.678;12.280;2023-05-10T02:46:01;96925.03;;;10.67
79756;BMP280;69239;50.678;12.280;2023-05-10T02:48:27;96910.22;;;10.62
79756;BMP280;69239;50.678;12.280;2023-05-10T02:50:54;96921.00;;;10.69
79756;BMP280;69239;50.678;12.280;2023-05-10T02:53:23;96910.91;;;10.71
79756;BMP280;69239;50.678;12.280;2023-05-10T02:55:52;96922.00;;;10.77
79756;BMP280;69239;50.678;12.280;2023-05-10T02:58:18;96917.97;;;10.79
79756;BMP280;69239;50.678;12.280;2023-05-10T03:00:46;96918.41;;;10.81
79756;BMP280;69239;50.678;12.280;2023-05-10T03:03:11;96918.06;;;10.83
79756;BMP280;69239;50.678;12.280;2023-05-10T03:05:37;96920.09;;;10.86
79756;BMP280;69239;50.678;12.280;2023-05-10T03:08:02;96911.44;;;10.85
79756;BMP280;69239;50.678;12.280;2023-05-10T03:10:30;96921.09;;;10.93
79756;BMP280;69239;50.678;12.280;2023-05-10T03:13:07;96912.53;;;10.97
79756;BMP280;69239;50.678;12.280;2023-05-10T03:15:54;96909.88;;;10.97
79756;BMP280;69239;50.678;12.280;2023-05-10T03:18:29;96907.72;;;10.99
79756;BMP280;69239;50.678;12.280;2023-05-10T03:21:02;96910.81;;;11.01
79756;BMP280;69239;50.678;12.280;2023-05-10T03:23:35;96914.00;;;11.06
79756;BMP280;69239;50.678;12.280;2023-05-10T03:26:01;96910.38;;;10.99
79756;BMP280;69239;50.678;12.280;2023-05-10T03:28:27;96909.59;;;10.98
79756;BMP280;69239;50.678;12.280;2023-05-10T03:30:54;96910.81;;;11.01
79756;BMP280;69239;50.678;12.280;2023-05-10T03:33:20;96911.44;;;10.98
79756;BMP280;69239;50.678;12.280;2023-05-10T03:35:45;96917.63;;;11.02
79756;BMP280;69239;50.678;12.280;2023-05-10T03:38:12;96904.63;;;10.97
79756;BMP280;69239;50.678;12.280;2023-05-10T03:40:37;96909.28;;;11.00
79756;BMP280;69239;50.678;12.280;2023-05-10T03:43:03;96906.41;;;11.05
79756;BMP280;69239;50.678;12.280;2023-05-10T03:45:28;96912.59;;;11.09
79756;BMP280;69239;50.678;12.280;2023-05-10T03:47:53;96911.50;;;11.10
79756;BMP280;69239;50.678;12.280;2023-05-10T03:50:20;96909.09;;;11.17
79756;BMP280;69239;50.678;12.280;2023-05-10T03:52:45;96903.38;;;11.15
79756;BMP280;69239;50.678;12.280;2023-05-10T03:55:11;96909.75;;;11.26
79756;BMP280;69239;50.678;12.280;2023-05-10T03:57:36;96909.53;;;11.31
79756;BMP280;69239;50.678;12.280;2023-05-10T04:00:02;96912.53;;;11.42
79756;BMP280;69239;50.678;12.280;2023-05-10T04:02:28;96897.91;;;11.44
79756;BMP280;69239;50.678;12.280;2023-05-10T04:04:54;96907.03;;;11.59
79756;BMP280;69239;50.678;12.280;2023-05-10T04:07:20;96910.66;;;11.67
79756;BMP280;69239;50.678;12.280;2023-05-10T04:09:45;96897.03;;;11.65
79756;BMP280;69239;50.678;12.280;2023-05-10T04:12:10;96907.81;;;11.84
79756;BMP280;69239;50.678;12.280;2023-05-10T04:14:36;96909.56;;;11.92
79756;BMP280;69239;50.678;12.280;2023-05-10T04:17:02;96907.56;;;12.01
79756;BMP280;69239;50.678;12.280;2023-05-10T04:19:30;96905.69;;;12.14
79756;BMP280;69239;50.678;12.280;2023-05-10T04:21:56;96909.31;;;12.21
79756;BMP280;69239;50.678;12.280;2023-05-10T04:24:21;96898.94;;;12.29
79756;BMP280;69239;50.678;12.280;2023-05-10T04:26:46;96905.28;;;12.40
79756;BMP280;69239;50.678;12.280;2023-05-10T04:29:12;96906.13;;;12.44
79756;BMP280;69239;50.678;12.280;2023-05-10T04:31:37;96906.13;;;12.56
79756;BMP280;69239;50.678;12.280;2023-05-10T04:34:03;96900.28;;;12.78
79756;BMP280;69239;50.678;12.280;2023-05-10T04:36:28;96901.34;;;12.90
79756;BMP280;69239;50.678;12.280;2023-05-10T04:38:54;96905.00;;;13.01
79756;BMP280;69239;50.678;12.280;2023-05-10T04:41:19;96904.28;;;13.16
79756;BMP280;69239;50.678;12.280;2023-05-10T04:43:46;96906.13;;;13.31
79756;BMP280;69239;50.678;12.280;2023-05-10T04:46:11;96917.06;;;13.45
79756;BMP280;69239;50.678;12.280;2023-05-10T04:48:36;96914.56;;;13.52
79756;BMP280;69239;50.678;12.280;2023-05-10T04:51:02;96897.50;;;13.50
79756;BMP280;69239;50.678;12.280;2023-05-10T04:53:29;96909.97;;;13.65
79756;BMP280;69239;50.678;12.280;2023-05-10T04:56:00;96914.78;;;13.79
79756;BMP280;69239;50.678;12.280;2023-05-10T04:58:26;96916.50;;;13.87
79756;BMP280;69239;50.678;12.280;2023-05-10T05:00:51;96917.78;;;13.93
79756;BMP280;69239;50.678;12.280;2023-05-10T05:03:17;96899.75;;;13.83
79756;BMP280;69239;50.678;12.280;2023-05-10T05:05:43;96919.63;;;13.93
79756;BMP280;69239;50.678;12.280;2023-05-10T05:08:08;96925.72;;;13.93
79756;BMP280;69239;50.678;12.280;2023-05-10T05:10:34;96918.53;;;13.94
79756;BMP280;69239;50.678;12.280;2023-05-10T05:13:00;96904.34;;;13.86
79756;BMP280;69239;50.678;12.280;2023-05-10T05:15:25;96923.22;;;14.00
79756;BMP280;69239;50.678;12.280;2023-05-10T05:17:50;96922.16;;;14.05
79756;BMP280;69239;50.678;12.280;2023-05-10T05:20:16;96928.38;;;14.12
79756;BMP280;69239;50.678;12.280;2023-05-10T05:22:42;96930.03;;;14.20
79756;BMP280;69239;50.678;12.280;2023-05-10T05:25:07;96927.22;;;14.29
79756;BMP280;69239;50.678;12.280;2023-05-10T05:27:33;96921.16;;;14.29
79756;BMP280;69239;50.678;12.280;2023-05-10T05:29:58;96925.03;;;14.35
79756;BMP280;69239;50.678;12.280;2023-05-10T05:32:24;96918.66;;;14.36
79756;BMP280;69239;50.678;12.280;2023-05-10T05:34:50;96929.78;;;14.45
79756;BMP280;69239;50.678;12.280;2023-05-10T05:37:18;96931.38;;;14.49
79756;BMP280;69239;50.678;12.280;2023-05-10T05:39:44;96923.84;;;14.51
79756;BMP280;69239;50.678;12.280;2023-05-10T05:42:11;96935.22;;;14.52
79756;BMP280;69239;50.678;12.280;2023-05-10T05:44:36;96922.63;;;14.49
79756;BMP280;69239;50.678;12.280;2023-05-10T05:47:02;96932.97;;;14.54
79756;BMP280;69239;50.678;12.280;2023-05-10T05:49:27;96936.75;;;14.53
79756;BMP280;69239;50.678;12.280;2023-05-10T05:51:52;96928.03;;;14.52
79756;BMP280;69239;50.678;12.280;2023-05-10T05:54:18;96938.28;;;14.54
79756;BMP280;69239;50.678;12.280;2023-05-10T05:56:43;96942.44;;;14.55
79756;BMP280;69239;50.678;12.280;2023-05-10T05:59:10;96945.06;;;14.55
79756;BMP280;69239;50.678;12.280;2023-05-10T06:01:35;96938.28;;;14.54
79756;BMP280;69239;50.678;12.280;2023-05-10T06:04:00;96943.69;;;14.61
79756;BMP280;69239;50.678;12.280;2023-05-10T06:06:26;96946.88;;;14.70
79756;BMP280;69239;50.678;12.280;2023-05-10T06:08:52;96950.00;;;14.72
79756;BMP280;69239;50.678;12.280;2023-05-10T06:11:17;96956.72;;;14.70
79756;BMP280;69239;50.678;12.280;2023-05-10T06:13:43;96955.97;;;14.69
79756;BMP280;69239;50.678;12.280;2023-05-10T06:16:08;96959.72;;;14.68
79756;BMP280;69239;50.678;12.280;2023-05-10T06:18:34;96964.22;;;14.64
79756;BMP280;69239;50.678;12.280;2023-05-10T06:21:00;96972.59;;;14.66
79756;BMP280;69239;50.678;12.280;2023-05-10T06:23:25;96975.22;;;14.66
79756;BMP280;69239;50.678;12.280;2023-05-10T06:25:51;96969.44;;;14.61
79756;BMP280;69239;50.678;12.280;2023-05-10T06:28:17;96978.13;;;14.61
79756;BMP280;69239;50.678;12.280;2023-05-10T06:30:42;96976.53;;;14.57
79756;BMP280;69239;50.678;12.280;2023-05-10T06:33:09;96985.94;;;14.54
79756;BMP280;69239;50.678;12.280;2023-05-10T06:35:35;96970.13;;;14.38
79756;BMP280;69239;50.678;12.280;2023-05-10T06:38:05;96986.16;;;14.45
79756;BMP280;69239;50.678;12.280;2023-05-10T06:40:32;96998.63;;;14.45
79756;BMP280;69239;50.678;12.280;2023-05-10T06:42:58;96961.78;;;14.20
79756;BMP280;69239;50.678;12.280;2023-05-10T06:45:24;96996.59;;;14.38
79756;BMP280;69239;50.678;12.280;2023-05-10T06:47:49;97006.41;;;14.38
79756;BMP280;69239;50.678;12.280;2023-05-10T06:50:15;96954.69;;;14.05
79756;BMP280;69239;50.678;12.280;2023-05-10T06:52:43;96985.22;;;14.18
79756;BMP280;69239;50.678;12.280;2023-05-10T06:55:10;96930.13;;;13.89
79756;BMP280;69239;50.678;12.280;2023-05-10T06:57:43;96970.63;;;14.09
79756;BMP280;69239;50.678;12.280;2023-05-10T07:00:08;97011.22;;;14.32
79756;BMP280;69239;50.678;12.280;2023-05-10T07:02:35;97001.84;;;14.19
79756;BMP280;69239;50.678;12.280;2023-05-10T07:05:00;97020.91;;;14.25
79756;BMP280;69239;50.678;12.280;2023-05-10T07:07:26;97014.25;;;14.15
79756;BMP280;69239;50.678;12.280;2023-05-10T07:13:08;96993.78;;;13.96
79756;BMP280;69239;50.678;12.280;2023-05-10T07:16:14;96950.81;;;13.68
79756;BMP280;69239;50.678;12.280;2023-05-10T07:18:52;96966.44;;;13.73
79756;BMP280;69239;50.678;12.280;2023-05-10T07:21:20;97005.66;;;14.02
79756;BMP280;69239;50.678;12.280;2023-05-10T07:24:12;97039.31;;;14.21
79756;BMP280;69239;50.678;12.280;2023-05-10T07:26:37;97028.94;;;14.12
79756;BMP280;69239;50.678;12.280;2023-05-10T07:29:23;96997.19;;;13.97
79756;BMP280;69239;50.678;12.280;2023-05-10T07:32:06;96985.28;;;13.87
79756;BMP280;69239;50.678;12.280;2023-05-10T07:34:31;97002.16;;;13.98
79756;BMP280;69239;50.678;12.280;2023-05-10T07:37:00;97037.78;;;14.20
79756;BMP280;69239;50.678;12.280;2023-05-10T07:39:27;97017.25;;;13.98
79756;BMP280;69239;50.678;12.280;2023-05-10T07:41:53;96991.06;;;13.77
79756;BMP280;69239;50.678;12.280;2023-05-10T07:44:21;97034.66;;;14.14
79756;BMP280;69239;50.678;12.280;2023-05-10T07:46:48;97007.44;;;13.98
79756;BMP280;69239;50.678;12.280;2023-05-10T07:49:14;97014.44;;;14.06
79756;BMP280;69239;50.678;12.280;2023-05-10T07:54:28;96996.19;;;14.01
79756;BMP280;69239;50.678;12.280;2023-05-10T07:56:53;96999.25;;;14.03
79756;BMP280;69239;50.678;12.280;2023-05-10T07:59:28;97054.50;;;14.40
79756;BMP280;69239;50.678;12.280;2023-05-10T08:02:06;97056.50;;;14.43
79756;BMP280;69239;50.678;12.280;2023-05-10T08:04:32;97072.94;;;14.52
79756;BMP280;69239;50.678;12.280;2023-05-10T08:07:04;97063.28;;;14.60
79756;BMP280;69239;50.678;12.280;2023-05-10T08:09:29;97063.47;;;14.70
79756;BMP280;69239;50.678;12.280;2023-05-10T08:11:55;97071.31;;;14.82
79756;BMP280;69239;50.678;12.280;2023-05-10T08:14:20;97074.53;;;14.92
79756;BMP280;69239;50.678;12.280;2023-05-10T08:16:46;97064.00;;;14.95
79756;BMP280;69239;50.678;12.280;2023-05-10T08:19:11;97070.59;;;15.05
79756;BMP280;69239;50.678;12.280;2023-05-10T08:21:37;97074.84;;;15.09
79756;BMP280;69239;50.678;12.280;2023-05-10T08:24:02;97078.69;;;15.12
79756;BMP280;69239;50.678;12.280;2023-05-10T08:26:28;97071.94;;;15.14
79756;BMP280;69239;50.678;12.280;2023-05-10T08:28:53;97083.28;;;15.15
79756;BMP280;69239;50.678;12.280;2023-05-10T08:31:19;97083.72;;;15.17
79756;BMP280;69239;50.678;12.280;2023-05-10T08:33:44;97080.38;;;15.20
79756;BMP280;69239;50.678;12.280;2023-05-10T08:36:10;97083.44;;;15.22
79756;BMP280;69239;50.678;12.280;2023-05-10T08:38:37;97086.50;;;15.24
79756;BMP280;69239;50.678;12.280;2023-05-10T08:41:03;97085.66;;;15.20
79756;BMP280;69239;50.678;12.280;2023-05-10T08:43:30;97082.94;;;15.16
79756;BMP280;69239;50.678;12.280;2023-05-10T08:45:55;97085.56;;;15.13
79756;BMP280;69239;50.678;12.280;2023-05-10T08:48:24;97091.25;;;15.15
79756;BMP280;69239;50.678;12.280;2023-05-10T08:50:52;97089.28;;;15.12
79756;BMP280;69239;50.678;12.280;2023-05-10T08:53:18;97095.28;;;15.09
79756;BMP280;69239;50.678;12.280;2023-05-10T08:55:45;97101.31;;;15.06
79756;BMP280;69239;50.678;12.280;2023-05-10T08:58:11;97097.88;;;15.05
79756;BMP280;69239;50.678;12.280;2023-05-10T09:00:37;97105.06;;;15.05
79756;BMP280;69239;50.678;12.280;2023-05-10T09:03:04;97108.06;;;15.03
79756;BMP280;69239;50.678;12.280;2023-05-10T09:05:29;97112.59;;;15.03
79756;BMP280;69239;50.678;12.280;2023-05-10T09:07:55;97112.59;;;15.03
79756;BMP280;69239;50.678;12.280;2023-05-10T09:10:21;97112.72;;;15.10
79756;BMP280;69239;50.678;12.280;2023-05-10T09:12:48;97114.00;;;15.16
79756;BMP280;69239;50.678;12.280;2023-05-10T09:15:15;97109.03;;;15.14
79756;BMP280;69239;50.678;12.280;2023-05-10T09:17:42;97119.66;;;15.14
79756;BMP280;69239;50.678;12.280;2023-05-10T09:20:09;97116.66;;;15.16
79756;BMP280;69239;50.678;12.280;2023-05-10T09:22:35;97121.19;;;15.15
79756;BMP280;69239;50.678;12.280;2023-05-10T09:25:05;97120.50;;;15.18
79756;BMP280;69239;50.678;12.280;2023-05-10T09:27:31;97130.41;;;15.21
79756;BMP280;69239;50.678;12.280;2023-05-10T09:29:56;97127.41;;;15.23
79756;BMP280;69239;50.678;12.280;2023-05-10T09:32:36;97131.22;;;15.26
79756;BMP280;69239;50.678;12.280;2023-05-10T09:35:13;97126.00;;;15.29
79756;BMP280;69239;50.678;12.280;2023-05-10T09:37:41;97136.34;;;15.34
79756;BMP280;69239;50.678;12.280;2023-05-10T09:40:07;97133.06;;;15.41
79756;BMP280;69239;50.678;12.280;2023-05-10T09:42:34;97135.34;;;15.42
79756;BMP280;69239;50.678;12.280;2023-05-10T09:45:06;97133.94;;;15.48
79756;BMP280;69239;50.678;12.280;2023-05-10T09:47:33;97143.13;;;15.54
79756;BMP280;69239;50.678;12.280;2023-05-10T09:49:59;97146.22;;;15.57
79756;BMP280;69239;50.678;12.280;2023-05-10T09:52:59;97147.88;;;15.65
79756;BMP280;69239;50.678;12.280;2023-05-10T09:55:25;97150.94;;;15.67
79756;BMP280;69239;50.678;12.280;2023-05-10T09:58:00;97150.91;;;15.63
79756;BMP280;69239;50.678;12.280;2023-05-10T10:00:27;97153.25;;;15.68
79756;BMP280;69239;50.678;12.280;2023-05-10T10:02:58;97154.84;;;15.73
79756;BMP280;69239;50.678;12.280;2023-05-10T10:05:30;97154.03;;;15.69
79756;BMP280;69239;50.678;12.280;2023-05-10T10:08:00;97150.13;;;15.63
79756;BMP280;69239;50.678;12.280;2023-05-10T10:10:26;97147.75;;;15.58
79756;BMP280;69239;50.678;12.280;2023-05-10T10:12:53;97155.31;;;15.55
79756;BMP280;69239;50.678;12.280;2023-05-10T10:15:20;97153.72;;;15.54
79756;BMP280;69239;50.678;12.280;2023-05-10T10:17:48;97156.06;;;15.56
79756;BMP280;69239;50.678;12.280;2023-05-10T10:20:14;97159.22;;;15.62
79756;BMP280;69239;50.678;12.280;2023-05-10T10:22:39;97154.72;;;15.66
79756;BMP280;69239;50.678;12.280;2023-05-10T10:25:05;97155.13;;;15.68
79756;BMP280;69239;50.678;12.280;2023-05-10T10:27:36;97160.50;;;15.71
79756;BMP280;69239;50.678;12.280;2023-05-10T10:30:15;97162.38;;;15.71
79756;BMP280;69239;50.678;12.280;2023-05-10T10:35:29;97164.66;;;15.69
79756;BMP280;69239;50.678;12.280;2023-05-10T10:37:55;97155.47;;;15.66
79756;BMP280;69239;50.678;12.280;2023-05-10T10:40:32;97160.84;;;15.70
79756;BMP280;69239;50.678;12.280;2023-05-10T10:42:58;97158.19;;;15.70
79756;BMP280;69239;50.678;12.280;2023-05-10T10:46:09;97164.19;;;15.67
79756;BMP280;69239;50.678;12.280;2023-05-10T10:48:33;97163.09;;;15.68
79756;BMP280;69239;50.678;12.280;2023-05-10T10:51:00;97164.69;;;15.72
79756;BMP280;69239;50.678;12.280;2023-05-10T10:53:28;97163.19;;;15.75
79756;BMP280;69239;50.678;12.280;2023-05-10T10:56:11;97165.59;;;15.80
79756;BMP280;69239;50.678;12.280;2023-05-10T10:58:37;97161.13;;;15.84
79756;BMP280;69239;50.678;12.280;2023-05-10T11:01:33;97170.19;;;15.83
79756;BMP280;69239;50.678;12.280;2023-05-10T11:06:32;97176.78;;;15.93
79756;BMP280;69239;50.678;12.280;2023-05-10T11:08:59;97166.66;;;15.98
79756;BMP280;69239;50.678;12.280;2023-05-10T11:11:24;97171.66;;;16.03
79756;BMP280;69239;50.678;12.280;2023-05-10T11:13:50;97162.59;;;16.04
79756;BMP280;69239;50.678;12.280;2023-05-10T11:16:21;97170.56;;;16.04
79756;BMP280;69239;50.678;12.280;2023-05-10T11:19:03;97166.34;;;16.03
79756;BMP280;69239;50.678;12.280;2023-05-10T11:21:33;97169.75;;;16.04
79756;BMP280;69239;50.678;12.280;2023-05-10T11:24:00;97171.78;;;16.10
79756;BMP280;69239;50.678;12.280;2023-05-10T11:26:30;97167.72;;;16.16
79756;BMP280;69239;50.678;12.280;2023-05-10T11:28:56;97170.44;;;16.20
79756;BMP280;69239;50.678;12.280;2023-05-10T11:31:22;97163.22;;;16.20
79756;BMP280;69239;50.678;12.280;2023-05-10T11:33:50;97173.50;;;16.22
79756;BMP280;69239;50.678;12.280;2023-05-10T11:36:25;97170.06;;;16.21
79756;BMP280;69239;50.678;12.280;2023-05-10T11:38:52;97177.63;;;16.19
79756;BMP280;69239;50.678;12.280;2023-05-10T11:41:18;97172.31;;;16.19
79756;BMP280;69239;50.678;12.280;2023-05-10T11:43:47;97177.28;;;16.21
79756;BMP280;69239;50.678;12.280;2023-05-10T11:46:14;97167.91;;;16.27
79756;BMP280;69239;50.678;12.280;2023-05-10T11:48:41;97172.56;;;16.34
79756;BMP280;69239;50.678;12.280;2023-05-10T11:51:07;97176.41;;;16.40
79756;BMP280;69239;50.678;12.280;2023-05-10T11:53:33;97181.03;;;16.43
79756;BMP280;69239;50.678;12.280;2023-05-10T11:56:03;97179.09;;;16.40
79756;BMP280;69239;50.678;12.280;2023-05-10T11:58:30;97183.28;;;16.41
79756;BMP280;69239;50.678;12.280;2023-05-10T12:00:56;97177.25;;;16.44
79756;BMP280;69239;50.678;12.280;2023-05-10T12:03:22;97173.81;;;16.43
79756;BMP280;69239;50.678;12.280;2023-05-10T12:05:47;97184.63;;;16.54
79756;BMP280;69239;50.678;12.280;2023-05-10T12:08:14;97180.16;;;16.62
79756;BMP280;69239;50.678;12.280;2023-05-10T12:10:40;97183.69;;;16.69
79756;BMP280;69239;50.678;12.280;2023-05-10T12:13:05;97184.50;;;16.73
79756;BMP280;69239;50.678;12.280;2023-05-10T12:15:35;97177.75;;;16.79
79756;BMP280;69239;50.678;12.280;2023-05-10T12:18:00;97181.63;;;16.85
79756;BMP280;69239;50.678;12.280;2023-05-10T12:20:27;97184.75;;;16.91
79756;BMP280;69239;50.678;12.280;2023-05-10T12:22:57;97193.56;;;16.95
79756;BMP280;69239;50.678;12.280;2023-05-10T12:25:23;97191.69;;;16.99
79756;BMP280;69239;50.678;12.280;2023-05-10T12:27:51;97193.22;;;17.00
79756;BMP280;69239;50.678;12.280;2023-05-10T12:30:24;97197.81;;;17.03
79756;BMP280;69239;50.678;12.280;2023-05-10T12:32:50;97195.56;;;17.05
79756;BMP280;69239;50.678;12.280;2023-05-10T12:35:16;97184.16;;;17.05
79756;BMP280;69239;50.678;12.280;2023-05-10T12:37:43;97191.06;;;17.09
79756;BMP280;69239;50.678;12.280;2023-05-10T12:40:09;97190.72;;;17.11
79756;BMP280;69239;50.678;12.280;2023-05-10T12:42:36;97186.53;;;17.13
79756;BMP280;69239;50.678;12.280;2023-05-10T12:45:03;97185.09;;;17.19
79756;BMP280;69239;50.678;12.280;2023-05-10T12:47:29;97188.91;;;17.22
79756;BMP280;69239;50.678;12.280;2023-05-10T12:49:54;97187.78;;;17.23
79756;BMP280;69239;50.678;12.280;2023-05-10T12:52:19;97181.34;;;17.24
79756;BMP280;69239;50.678;12.280;2023-05-10T12:54:45;97190.53;;;17.30
79756;BMP280;69239;50.678;12.280;2023-05-10T12:57:11;97185.31;;;17.37
79756;BMP280;69239;50.678;12.280;2023-05-10T12:59:36;97185.72;;;17.43
79756;BMP280;69239;50.678;12.280;2023-05-10T13:02:02;97186.16;;;17.45
79756;BMP280;69239;50.678;12.280;2023-05-10T13:04:27;97186.94;;;17.45
79756;BMP280;69239;50.678;12.280;2023-05-10T13:06:52;97180.06;;;17.44
79756;BMP280;69239;50.678;12.280;2023-05-10T13:09:18;97184.28;;;17.49
79756;BMP280;69239;50.678;12.280;2023-05-10T13:11:43;97191.53;;;17.52
79756;BMP280;69239;50.678;12.280;2023-05-10T13:14:10;97192.31;;;17.52
79756;BMP280;69239;50.678;12.280;2023-05-10T13:16:35;97183.56;;;17.52
79756;BMP280;69239;50.678;12.280;2023-05-10T13:19:01;97184.69;;;17.51
79756;BMP280;69239;50.678;12.280;2023-05-10T13:21:26;97190.81;;;17.55
79756;BMP280;69239;50.678;12.280;2023-05-10T13:23:52;97188.53;;;17.53
79756;BMP280;69239;50.678;12.280;2023-05-10T13:26:17;97187.38;;;17.54
79756;BMP280;69239;50.678;12.280;2023-05-10T13:28:43;97193.13;;;17.56
79756;BMP280;69239;50.678;12.280;2023-05-10T13:31:08;97196.94;;;17.59
79756;BMP280;69239;50.678;12.280;2023-05-10T13:33:33;97191.25;;;17.60
79756;BMP280;69239;50.678;12.280;2023-05-10T13:35:59;97197.72;;;17.63
79756;BMP280;69239;50.678;12.280;2023-05-10T13:38:24;97195.81;;;17.60
79756;BMP280;69239;50.678;12.280;2023-05-10T13:40:50;97191.59;;;17.55
79756;BMP280;69239;50.678;12.280;2023-05-10T13:43:18;97191.19;;;17.53
79756;BMP280;69239;50.678;12.280;2023-05-10T13:45:43;97194.56;;;17.50
79756;BMP280;69239;50.678;12.280;2023-05-10T13:48:09;97197.59;;;17.49
79756;BMP280;69239;50.678;12.280;2023-05-10T13:50:34;97192.25;;;17.45
79756;BMP280;69239;50.678;12.280;2023-05-10T13:52:59;97197.53;;;17.42
79756;BMP280;69239;50.678;12.280;2023-05-10T13:55:25;97197.88;;;17.40
79756;BMP280;69239;50.678;12.280;2023-05-10T13:57:50;97196.75;;;17.41
79756;BMP280;69239;50.678;12.280;2023-05-10T14:00:16;97194.16;;;17.45
79756;BMP280;69239;50.678;12.280;2023-05-10T14:02:41;97191.50;;;17.48
79756;BMP280;69239;50.678;12.280;2023-05-10T14:05:07;97193.38;;;17.48
79756;BMP280;69239;50.678;12.280;2023-05-10T14:07:32;97193.00;;;17.46
79756;BMP280;69239;50.678;12.280;2023-05-10T14:09:58;97189.16;;;17.43
79756;BMP280;69239;50.678;12.280;2023-05-10T14:12:23;97186.06;;;17.38
79756;BMP280;69239;50.678;12.280;2023-05-10T14:14:48;97192.88;;;17.35
79756;BMP280;69239;50.678;12.280;2023-05-10T14:17:14;97186.34;;;17.29
79756;BMP280;69239;50.678;12.280;2023-05-10T14:19:39;97184.44;;;17.26
79756;BMP280;69239;50.678;12.280;2023-05-10T14:22:05;97188.22;;;17.25